Latest Coastal Weather Observations for Newcastle Nobbys

IDN60701

Issued at 2:01 am EDT Wednesday 18 January 2017 (issued every 10 minutes, with the page automatically refreshed every 10 minutes)

About coastal observations | Map of coastal stations | Coastal observations for NSW | Marine services | Other Formats
Station Details ID: 061055 Name: NEWCASTLE NOBBYS SIGNAL STATION AWS Lat: -32.92 Lon: 151.80 Height: 33.0 m
Data from the previous 72 hours. | See also: Recent months at Newcastle Nobbys
Date/Time
EDT
Temp
°C
Wind Pressure Rain since
9am
mm
Weather Cloud Vis
km
Sea
Height
m
Swell
Dir  Spd
kts
Gust
kts
hPa Trend Height
m
Period
s
Dir
18/02:00am 27.9 NNW 8 8 - - - - - - - - - -
18/01:30am 28.3 NNW 6 7 - - 0.0 - - - - - - -
18/01:00am 29.1 NNW 7 9 - - 0.0 - - - - - - -
18/12:30am 28.9 NNW 7 8 - - 0.0 - - - - - - -
18/12:00am 29.7 NNW 8 11 - - 0.0 - - - - - - -
 
Date/Time
EDT
Temp
°C
Wind Pressure Rain since
9am
mm
Weather Cloud Vis
km
Sea
Height
m
Swell
Dir  Spd
kts
Gust
kts
hPa Trend Height
m
Period
s
Dir
17/11:30pm 29.4 N 10 12 - - 0.0 - - - - - - -
17/11:00pm 29.1 N 9 11 - - 0.0 - - - - - - -
17/10:30pm 29.2 NNE 10 11 - - 0.0 - - - - - - -
17/10:00pm 29.1 NNE 11 15 - - 0.0 - - - - - - -
17/09:30pm 28.5 NE 10 12 - - 0.0 - - - - - - -
17/09:00pm 28.7 NE 10 14 - - 0.0 - - - - - - -
17/08:30pm 29.3 NE 12 17 - - 0.0 - - - - - - -
17/08:00pm 28.3 NE 13 18 - - 0.0 - - - - - - -
17/07:30pm 28.5 NE 16 19 - - 0.0 - - - - - - -
17/07:00pm 27.4 ENE 11 15 - - 0.0 - - - - - - -
17/06:30pm 27.4 ENE 13 16 - - 0.0 - - - - - - -
17/06:00pm 26.8 ENE 13 17 - - 0.0 - - - - - - -
17/05:30pm 26.3 ENE 15 18 - - 0.0 - - - - - - -
17/05:00pm 26.8 ENE 15 19 - - 0.0 - - - - - - -
17/04:30pm 26.8 ENE 18 22 - - 0.0 - - - - - - -
17/04:00pm 26.5 ENE 18 23 - - 0.0 - - - - - - -
17/03:30pm 26.4 ENE 16 19 - - 0.0 - - - - - - -
17/03:00pm 26.0 ENE 15 19 - - 0.0 - - - - - - -
17/02:30pm 26.4 ENE 14 17 - - 0.0 - - - - - - -
17/02:00pm 27.3 E 10 15 - - 0.0 - - - - - - -
17/01:30pm 30.6 WNW 8 14 - - 0.0 - - - - - - -
17/01:28pm 30.4 WNW 8 14 - - 0.0 - - - - - - -
17/01:00pm 35.5 NW 9 15 - - 0.0 - - - - - - -
17/12:46pm 34.0 NW 9 15 - - 0.0 - - - - - - -
17/12:30pm 28.8 ENE 6 11 - - 0.0 - - - - - - -
17/12:00pm 26.8 NE 9 13 - - 0.0 - - - - - - -
17/11:30am 26.3 NE 9 12 - - 0.0 - - - - - - -
17/11:00am 26.3 ENE 8 9 - - 0.0 - - - - - - -
17/10:30am 26.2 NE 5 7 - - 0.0 - - - - - - -
17/10:00am 25.5 NE 5 7 - - 0.0 - - - - - - -
17/09:30am 24.7 N 6 7 - - 0.0 - - - - - - -
17/09:00am 23.1 NNW 7 9 - - 0.0 - - - - - - -
17/08:30am 22.2 NW 6 8 - - 0.0 - - - - - - -
17/08:00am 21.4 NW 9 12 - - 0.0 - - - - - - -
17/07:30am 21.5 N 2 5 - - 0.0 - - - - - - -
17/07:00am 21.4 S 2 2 - - 0.0 - - - - - - -
17/06:30am 20.7 S 4 5 - - 0.0 - - - - - - -
17/06:00am 20.8 WSW 1 3 - - 0.0 - - - - - - -
17/05:30am 20.8 WNW 1 3 - - 0.0 - - - - - - -
17/05:00am 21.0 NNW 3 4 - - 0.0 - - - - - - -
17/04:30am 21.2 NE 5 6 - - 0.0 - - - - - - -
17/04:00am 21.3 ENE 4 6 - - 0.0 - - - - - - -
17/03:30am 21.3 ENE 6 8 - - 0.0 - - - - - - -
17/03:00am 21.4 ENE 5 7 - - 0.0 - - - - - - -
17/02:30am 21.4 ENE 5 7 - - 0.0 - - - - - - -
17/02:00am 21.4 NE 4 7 - - 0.0 - - - - - - -
17/01:30am 21.5 NE 4 7 - - 0.0 - - - - - - -
17/01:00am 21.6 NE 6 8 - - 0.0 - - - - - - -
17/12:30am 21.8 NE 7 10 - - 0.0 - - - - - - -
17/12:00am 21.9 NE 8 11 - - 0.0 - - - - - - -
 
Date/Time
EDT
Temp
°C
Wind Pressure Rain since
9am
mm
Weather Cloud Vis
km
Sea
Height
m
Swell
Dir  Spd
kts
Gust
kts
hPa Trend Height
m
Period
s
Dir
16/11:30pm 22.0 NE 10 13 - - 0.0 - - - - - - -
16/11:00pm 22.2 NE 9 14 - - 0.0 - - - - - - -
16/10:30pm 22.3 NE 11 14 - - 0.0 - - - - - - -
16/10:00pm 22.3 NE 10 13 - - 0.0 - - - - - - -
16/09:30pm 22.4 NE 10 13 - - 0.0 - - - - - - -
16/09:00pm 22.5 ENE 11 16 - - 0.0 - - - - - - -
16/08:30pm 22.2 ENE 13 18 - - 0.0 - - - - - - -
16/08:00pm 22.4 ENE 17 21 - - 0.0 - - - - - - -
16/07:30pm 22.6 ENE 18 23 - - 0.0 - - - - - - -
16/07:00pm 22.8 ENE 19 25 - - 0.0 - - - - - - -
16/06:30pm 23.2 ENE 20 25 - - 0.0 - - - - - - -
16/06:00pm 23.2 ENE 20 25 - - 0.0 - - - - - - -
16/05:30pm 23.4 ENE 22 27 - - 0.0 - - - - - - -
16/05:00pm 23.5 ENE 22 27 - - 0.0 - - - - - - -
16/04:30pm 23.7 E 22 27 - - 0.0 - - - - - - -
16/04:00pm 23.8 ENE 22 27 - - 0.0 - - - - - - -
16/03:30pm 23.9 ENE 21 26 - - 0.0 - - - - - - -
16/03:00pm 24.0 E 20 25 - - 0.0 - - - - - - -
16/02:30pm 24.1 E 20 25 - - 0.0 - - - - - - -
16/02:00pm 24.2 E 19 23 - - 0.0 - - - - - - -
16/01:30pm 24.1 E 18 23 - - 0.0 - - - - - - -
16/01:00pm 24.4 E 17 20 - - 0.0 - - - - - - -
16/12:30pm 24.3 E 16 19 - - 0.0 - - - - - - -
16/12:00pm 24.2 E 16 19 - - 0.0 - - - - - - -
16/11:30am 23.9 E 14 18 - - 0.0 - - - - - - -
16/11:00am 23.6 E 13 15 - - 0.0 - - - - - - -
16/10:30am 24.4 E 12 14 - - 0.0 - - - - - - -
16/10:00am 24.2 E 10 13 - - 0.0 - - - - - - -
16/09:30am 23.6 E 7 8 - - 0.0 - - - - - - -
16/09:00am 23.6 ENE 6 9 - - 0.0 - - - - - - -
16/08:30am 22.4 ENE 5 7 - - 0.0 - - - - - - -
16/08:00am 21.9 ENE 6 7 - - 0.0 - - - - - - -
16/07:30am 21.7 NE 3 5 - - 0.0 - - - - - - -
16/07:00am 22.0 NE 3 5 - - 0.0 - - - - - - -
16/06:30am 21.8 NE 4 7 - - 0.0 - - - - - - -
16/06:00am 21.7 E 5 7 - - 0.0 - - - - - - -
16/05:30am 21.6 E 4 5 - - 0.0 - - - - - - -
16/05:00am 21.4 ESE 2 3 - - 0.0 - - - - - - -
16/04:30am 21.3 ESE 2 3 - - 0.0 - - - - - - -
16/04:00am 21.4 ESE 4 5 - - 0.0 - - - - - - -
16/03:30am 21.3 ESE 5 6 - - 0.0 - - - - - - -
16/03:00am 21.0 SE 4 5 - - 0.0 - - - - - - -
16/02:30am 20.8 E 2 3 - - 0.0 - - - - - - -
16/02:00am 20.9 E 2 3 - - 0.0 - - - - - - -
16/01:30am 20.9 ENE 2 3 - - 0.0 - - - - - - -
16/01:00am 20.9 ENE 2 4 - - 0.0 - - - - - - -
16/12:30am 21.2 NE 4 5 - - 0.0 - - - - - - -
16/12:00am 21.2 NNE 5 6 - - 0.0 - - - - - - -
 
Date/Time
EDT
Temp
°C
Wind Pressure Rain since
9am
mm
Weather Cloud Vis
km
Sea
Height
m
Swell
Dir  Spd
kts
Gust
kts
hPa Trend Height
m
Period
s
Dir
15/11:30pm 21.6 NE 5 6 - - 0.0 - - - - - - -
15/11:00pm 21.3 NE 7 10 - - 0.0 - - - - - - -
15/10:30pm 21.4 NE 8 10 - - 0.0 - - - - - - -
15/10:00pm 21.3 ENE 7 10 - - 0.0 - - - - - - -
15/09:30pm 21.5 ENE 8 11 - - 0.0 - - - - - - -
15/09:00pm 21.6 E 8 9 - - 0.0 - - - - - - -
15/08:30pm 21.9 ENE 6 9 - - 0.0 - - - - - - -
15/08:00pm 21.9 ENE 7 9 - - 0.0 - - - - - - -
15/07:30pm 22.0 ENE 9 11 - - 0.0 - - - - - - -
15/07:00pm 22.2 ENE 9 11 - - 0.0 - - - - - - -
15/06:30pm 22.3 ENE 9 11 - - 0.0 - - - - - - -
15/06:00pm 22.4 NE 8 11 - - 0.0 - - - - - - -
15/05:30pm 22.7 ENE 11 15 - - 0.0 - - - - - - -
15/05:00pm 22.9 E 12 14 - - 0.0 - - - - - - -
15/04:30pm 22.6 ESE 14 15 - - 0.0 - - - - - - -
15/04:00pm 23.0 ESE 11 13 - - 0.0 - - - - - - -
15/03:30pm 23.4 ESE 11 15 - - 0.0 - - - - - - -
15/03:00pm 24.0 SE 4 5 - - 0.0 - - - - - - -
15/02:30pm 23.8 SE 3 4 - - 0.0 - - - - - - -
15/02:00pm 24.3 E 2 3 - - 0.0 - - - - - - -
15/01:30pm 24.5 E 3 5 - - 0.0 - - - - - - -
15/01:00pm 23.5 E 4 5 - - 0.0 - - - - - - -
15/12:30pm 23.5 E 4 5 - - 0.0 - - - - - - -
15/12:00pm 23.8 E 4 5 - - 0.0 - - - - - - -
15/11:30am 23.4 E 5 7 - - 0.0 - - - - - - -
15/11:00am 22.8 E 6 7 - - 0.0 - - - - - - -
15/10:30am 22.7 E 9 10 - - 0.0 - - - - - - -
15/10:00am 22.8 ESE 9 10 - - 0.0 - - - - - - -
15/09:30am 22.8 E 8 9 - - 0.0 - - - - - - -
15/09:00am 22.8 E 9 10 - - 0.0 - - - - - - -
15/08:30am 22.5 ESE 10 12 - - 0.0 - - - - - - -
15/08:00am 22.4 ESE 11 13 - - 0.0 - - - - - - -
15/07:30am 22.4 ESE 11 13 - - 0.0 - - - - - - -
15/07:00am 22.4 ESE 11 12 - - 0.0 - - - - - - -
15/06:30am 22.5 ESE 11 12 - - 0.0 - - - - - - -
15/06:00am 22.3 ESE 11 13 - - 0.0 - - - - - - -
15/05:30am 22.4 ESE 12 14 - - 0.0 - - - - - - -
15/05:00am 22.5 ESE 12 14 - - 0.0 - - - - - - -
15/04:30am 22.5 SE 14 16 - - 0.0 - - - - - - -
15/04:00am 22.5 ESE 11 13 - - 0.0 - - - - - - -
15/03:30am 22.3 ESE 13 16 - - 0.0 - - - - - - -
15/03:00am 22.0 ESE 12 14 - - 0.0 - - - - - - -
15/02:30am 22.1 SE 15 19 - - 0.0 - - - - - - -
15/02:13am 22.7 SE 15 24 - - 0.0 - - - - - - -

Other Formats:

Comma delimited format used in spreadsheet applications
http://www.bom.gov.au/fwo/IDN60701/IDN60701.94774.axf

JavaScript Object Notation format (JSON) in row-major order
http://www.bom.gov.au/fwo/IDN60701/IDN60701.94774.json